createdAt,value
2023-01-19T00:01:46.368Z,56.38
2023-01-19T00:04:15.553Z,56.76
2023-01-19T00:06:44.440Z,57.23
2023-01-19T00:09:13.758Z,57.34
2023-01-19T00:11:43.235Z,57.72
2023-01-19T00:14:12.432Z,57.67
2023-01-19T00:16:41.571Z,56.92
2023-01-19T00:19:10.818Z,56.91
2023-01-19T00:21:39.671Z,56.17
2023-01-19T00:24:09.064Z,56.71
2023-01-19T00:26:41.538Z,57.04
2023-01-19T00:29:12.819Z,58.04
2023-01-19T00:31:42.881Z,57.87
2023-01-19T00:34:12.099Z,58.19
2023-01-19T00:36:41.327Z,58.66
2023-01-19T00:39:10.552Z,59.05
2023-01-19T00:41:58.100Z,59.02
2023-01-19T00:44:27.243Z,60.23
2023-01-19T00:46:56.285Z,60.49
2023-01-19T00:49:25.550Z,60.42
2023-01-19T00:51:54.475Z,60.27
2023-01-19T00:54:23.941Z,60.83
2023-01-19T00:56:52.902Z,60.99
2023-01-19T00:59:22.334Z,61.05
2023-01-19T01:01:53.157Z,61.98
2023-01-19T01:04:24.303Z,61.90
2023-01-19T01:06:54.219Z,62.13
2023-01-19T01:09:25.474Z,62.62
2023-01-19T01:11:55.459Z,62.41
2023-01-19T01:14:25.840Z,63.22
2023-01-19T01:16:59.195Z,63.30
2023-01-19T01:19:28.990Z,64.09
2023-01-19T01:21:58.345Z,63.74
2023-01-19T01:24:27.812Z,63.29
2023-01-19T01:26:58.022Z,63.76
2023-01-19T01:29:27.813Z,64.26
2023-01-19T01:31:57.835Z,64.78
2023-01-19T01:34:26.730Z,64.42
2023-01-19T01:36:56.020Z,64.90
2023-01-19T01:39:25.498Z,65.63
2023-01-19T01:41:55.899Z,65.57
2023-01-19T01:44:53.872Z,65.45
2023-01-19T01:47:29.107Z,65.75
2023-01-19T01:50:19.248Z,65.73
2023-01-19T01:53:07.639Z,66.49
2023-01-19T01:55:48.823Z,66.63
2023-01-19T01:58:18.699Z,66.91
2023-01-19T02:01:06.469Z,67.08
2023-01-19T02:03:36.522Z,67.01
2023-01-19T02:06:08.906Z,67.17
2023-01-19T02:09:27.095Z,67.52
2023-01-19T02:12:15.498Z,67.98
2023-01-19T02:14:44.846Z,68.13
2023-01-19T02:17:14.130Z,68.45
2023-01-19T02:19:45.477Z,67.80
2023-01-19T02:22:18.873Z,67.99
2023-01-19T02:24:48.518Z,68.35
2023-01-19T02:27:18.604Z,68.55
2023-01-19T02:29:48.214Z,68.51
2023-01-19T02:32:17.220Z,68.39
2023-01-19T02:34:46.730Z,68.96
2023-01-19T02:37:19.397Z,68.91
2023-01-19T02:39:58.960Z,68.29
2023-01-19T02:42:53.162Z,68.11
2023-01-19T02:45:24.208Z,68.22
2023-01-19T02:47:54.337Z,68.38
2023-01-19T02:51:05.373Z,67.91
2023-01-19T02:53:34.944Z,68.34
2023-01-19T02:56:24.862Z,68.95
2023-01-19T02:59:07.709Z,68.33
2023-01-19T03:01:48.582Z,67.69
2023-01-19T03:04:39.127Z,68.55
2023-01-19T03:07:27.080Z,68.12
2023-01-19T03:10:04.492Z,68.00
2023-01-19T03:12:44.820Z,67.87
2023-01-19T03:15:34.759Z,67.47
2023-01-19T03:18:08.202Z,67.06
2023-01-19T03:20:39.133Z,66.74
2023-01-19T03:23:14.135Z,66.30
2023-01-19T03:25:48.656Z,66.54
2023-01-19T03:28:21.475Z,65.98
2023-01-19T03:30:59.465Z,65.90
2023-01-19T03:33:36.398Z,65.93
2023-01-19T03:36:13.447Z,65.40
2023-01-19T03:38:45.525Z,65.00
2023-01-19T03:41:19.292Z,64.41
2023-01-19T03:43:51.243Z,63.60
2023-01-19T03:46:22.035Z,62.94
2023-01-19T03:48:52.021Z,62.62
2023-01-19T03:51:21.513Z,61.95
2023-01-19T03:53:51.491Z,61.60
2023-01-19T03:56:26.384Z,60.68
2023-01-19T03:58:56.325Z,59.83
2023-01-19T04:01:27.073Z,59.30
2023-01-19T04:03:56.813Z,58.18
2023-01-19T04:06:26.603Z,56.94
2023-01-19T04:08:56.141Z,55.02
2023-01-19T04:11:25.653Z,54.34
2023-01-19T04:13:55.726Z,54.14
2023-01-19T04:16:25.317Z,54.10
2023-01-19T04:18:54.433Z,54.21
2023-01-19T04:21:24.056Z,52.40
2023-01-19T04:23:54.386Z,51.91
2023-01-19T04:26:26.884Z,51.47
2023-01-19T04:28:56.298Z,51.62
2023-01-19T04:31:26.391Z,50.33
2023-01-19T04:33:57.401Z,49.86
2023-01-19T04:36:27.240Z,49.30
2023-01-19T04:38:56.856Z,48.76
2023-01-19T04:41:26.326Z,49.03
2023-01-19T04:43:56.009Z,48.57
2023-01-19T04:46:25.306Z,48.38
2023-01-19T04:48:54.759Z,48.34
2023-01-19T04:51:24.136Z,48.02
2023-01-19T04:53:53.746Z,47.15
2023-01-19T04:56:23.837Z,47.18
2023-01-19T04:58:53.036Z,46.84
2023-01-19T05:01:22.433Z,44.87
2023-01-19T05:03:51.908Z,45.30
2023-01-19T05:06:21.141Z,45.06
2023-01-19T05:08:50.636Z,44.98
2023-01-19T05:11:20.032Z,44.37
2023-01-19T05:13:50.879Z,43.89
2023-01-19T05:16:20.633Z,43.15
2023-01-19T05:18:50.124Z,41.96
2023-01-19T05:21:19.471Z,41.56
2023-01-19T05:23:48.290Z,41.67
2023-01-19T05:26:17.919Z,41.46
2023-01-19T05:28:47.589Z,42.08
2023-01-19T05:31:18.650Z,42.42
2023-01-19T05:33:50.178Z,39.93
2023-01-19T05:36:19.126Z,38.99
2023-01-19T05:38:48.430Z,39.02
2023-01-19T05:41:18.749Z,37.82
2023-01-19T05:43:48.155Z,39.49
2023-01-19T05:46:17.513Z,39.57
2023-01-19T05:48:46.944Z,39.60
2023-01-19T05:51:16.226Z,39.26
2023-01-19T05:53:45.512Z,38.89
2023-01-19T05:56:14.582Z,38.69
2023-01-19T05:58:43.507Z,38.51
2023-01-19T06:01:12.820Z,38.60
2023-01-19T06:03:42.120Z,38.38
2023-01-19T06:06:11.149Z,38.54
2023-01-19T06:08:40.763Z,39.03
2023-01-19T06:11:10.723Z,38.17
2023-01-19T06:13:44.400Z,38.91
2023-01-19T06:16:14.115Z,38.00
2023-01-19T06:18:43.852Z,37.86
2023-01-19T06:21:15.253Z,37.46
2023-01-19T06:23:44.826Z,36.98
2023-01-19T06:26:14.831Z,37.03
2023-01-19T06:28:44.123Z,36.88
2023-01-19T06:31:14.013Z,37.38
2023-01-19T06:33:43.820Z,36.95
2023-01-19T06:36:13.415Z,36.49
2023-01-19T06:38:42.786Z,36.64
2023-01-19T06:41:12.304Z,36.27
2023-01-19T06:43:41.806Z,36.18
2023-01-19T06:46:11.420Z,36.17
2023-01-19T06:48:40.890Z,37.42
2023-01-19T06:51:37.971Z,37.09
2023-01-19T06:54:06.983Z,37.30
2023-01-19T06:56:35.770Z,37.06
2023-01-19T06:59:05.517Z,37.00
2023-01-19T07:01:34.696Z,36.68
2023-01-19T07:04:04.989Z,36.64
2023-01-19T07:06:34.485Z,36.93
2023-01-19T07:09:08.001Z,36.65
2023-01-19T07:11:37.882Z,36.93
2023-01-19T07:14:07.490Z,36.95
2023-01-19T07:16:36.840Z,37.16
2023-01-19T07:19:06.129Z,37.20
2023-01-19T07:21:35.163Z,36.38
2023-01-19T07:24:04.887Z,36.90
2023-01-19T07:26:34.260Z,36.81
2023-01-19T07:29:03.827Z,36.34
2023-01-19T07:31:33.304Z,35.77
2023-01-19T07:34:02.452Z,35.59
2023-01-19T07:36:32.327Z,35.33
2023-01-19T07:39:01.483Z,34.80
2023-01-19T07:41:30.625Z,35.65
2023-01-19T07:44:04.481Z,35.87
2023-01-19T07:46:33.922Z,36.54
2023-01-19T07:49:03.336Z,36.67
2023-01-19T07:51:32.537Z,37.14
2023-01-19T07:54:02.607Z,37.23
2023-01-19T07:56:44.938Z,37.06
2023-01-19T07:59:14.379Z,36.78
2023-01-19T08:01:43.421Z,37.65
2023-01-19T08:04:13.473Z,37.29
2023-01-19T08:06:47.398Z,37.20
2023-01-19T08:09:16.663Z,37.07
2023-01-19T08:11:45.976Z,37.53
2023-01-19T08:14:15.210Z,36.96
2023-01-19T08:16:44.593Z,36.53
2023-01-19T08:19:14.568Z,36.76
2023-01-19T08:21:44.375Z,37.08
2023-01-19T08:24:22.637Z,36.92
2023-01-19T08:26:52.861Z,37.06
2023-01-19T08:29:22.543Z,37.31
2023-01-19T08:31:52.002Z,37.13
2023-01-19T08:34:21.810Z,36.47
2023-01-19T08:36:51.281Z,36.63
2023-01-19T08:39:20.921Z,36.67
2023-01-19T08:41:51.090Z,37.05
2023-01-19T08:44:21.040Z,36.94
2023-01-19T08:46:50.947Z,37.20
2023-01-19T08:49:20.259Z,37.83
2023-01-19T08:55:18.351Z,37.57
2023-01-19T08:57:47.764Z,38.62
2023-01-19T09:00:17.732Z,38.25
2023-01-19T09:02:53.109Z,38.29
2023-01-19T09:05:23.755Z,38.53
2023-01-19T09:07:53.444Z,38.42
2023-01-19T09:10:23.063Z,38.61
2023-01-19T09:12:52.796Z,38.54
2023-01-19T09:15:21.704Z,39.55
2023-01-19T09:17:53.360Z,39.67
2023-01-19T09:20:24.439Z,39.76
2023-01-19T09:22:53.866Z,39.73
2023-01-19T09:25:23.229Z,39.99
2023-01-19T09:27:53.282Z,39.75
2023-01-19T09:30:22.801Z,40.14
2023-01-19T09:32:52.198Z,40.32
2023-01-19T09:35:22.795Z,41.21
2023-01-19T09:37:52.288Z,41.24
2023-01-19T09:40:22.598Z,41.21
2023-01-19T09:43:25.743Z,40.71
2023-01-19T09:46:02.356Z,41.13
2023-01-19T09:48:40.751Z,40.66
2023-01-19T09:51:24.389Z,41.40
2023-01-19T09:54:13.971Z,41.30
2023-01-19T09:56:51.219Z,41.29
2023-01-19T09:59:23.799Z,41.46
2023-01-19T10:02:05.242Z,40.97
2023-01-19T10:04:42.395Z,41.27
2023-01-19T10:07:54.486Z,41.41
2023-01-19T10:10:32.934Z,41.63
2023-01-19T10:13:13.877Z,41.44
2023-01-19T10:15:43.027Z,41.67
2023-01-19T10:18:15.326Z,41.95
2023-01-19T10:20:53.189Z,42.61
2023-01-19T10:23:41.340Z,43.31
2023-01-19T10:26:24.675Z,42.61
2023-01-19T10:28:59.071Z,42.04
2023-01-19T10:31:28.569Z,43.58
2023-01-19T10:33:58.259Z,43.49
2023-01-19T10:36:30.419Z,43.15
2023-01-19T10:39:00.242Z,42.79
2023-01-19T10:41:53.484Z,42.58
2023-01-19T10:44:31.150Z,43.33
2023-01-19T10:47:03.183Z,43.28
2023-01-19T10:49:40.267Z,43.02
2023-01-19T10:52:21.030Z,43.25
2023-01-19T10:54:50.514Z,43.31
2023-01-19T10:57:32.023Z,43.25
2023-01-19T11:00:01.651Z,43.11
2023-01-19T11:02:33.374Z,43.83
2023-01-19T11:05:24.679Z,43.95
2023-01-19T11:07:54.131Z,43.42
2023-01-19T11:10:25.240Z,43.83
2023-01-19T11:13:02.320Z,43.94
2023-01-19T11:15:56.190Z,44.21
2023-01-19T11:18:33.592Z,44.45
2023-01-19T11:21:15.587Z,45.00
2023-01-19T11:23:52.014Z,45.39
2023-01-19T11:26:42.797Z,45.83
2023-01-19T11:29:23.432Z,46.22
2023-01-19T11:31:54.379Z,46.50
2023-01-19T11:34:41.264Z,46.65
2023-01-19T11:37:20.396Z,47.15
2023-01-19T11:39:53.602Z,47.48
2023-01-19T11:42:24.170Z,47.61
2023-01-19T11:44:56.153Z,48.13
2023-01-19T11:47:42.772Z,48.53
2023-01-19T11:50:30.784Z,48.75
2023-01-19T11:53:18.918Z,48.96
2023-01-19T11:55:59.256Z,48.95
2023-01-19T11:58:29.217Z,49.50
2023-01-19T12:01:22.091Z,49.84
2023-01-19T12:04:11.734Z,49.81
2023-01-19T12:06:48.933Z,50.15
2023-01-19T12:09:43.703Z,50.68
2023-01-19T12:12:33.613Z,51.02
2023-01-19T12:15:23.740Z,51.88
2023-01-19T12:17:56.466Z,51.61
2023-01-19T12:20:47.724Z,52.33
2023-01-19T12:23:34.441Z,53.07
2023-01-19T12:26:34.779Z,53.36
2023-01-19T12:29:15.834Z,53.46
2023-01-19T12:31:45.136Z,53.69
2023-01-19T12:34:41.644Z,53.75
2023-01-19T12:37:32.089Z,53.40
2023-01-19T12:40:29.794Z,53.18
2023-01-19T12:43:07.193Z,53.12
2023-01-19T12:45:40.774Z,53.34
2023-01-19T12:48:26.417Z,53.29
2023-01-19T12:50:55.484Z,52.99
2023-01-19T12:53:27.674Z,53.27
2023-01-19T12:56:02.000Z,53.18
2023-01-19T12:58:31.390Z,53.14
2023-01-19T13:01:22.448Z,53.11
2023-01-19T13:04:10.745Z,53.28
2023-01-19T13:06:49.298Z,53.62
2023-01-19T13:09:34.328Z,53.19
2023-01-19T13:12:15.906Z,53.41
2023-01-19T13:14:46.122Z,53.30
2023-01-19T13:17:39.299Z,53.21
2023-01-19T13:20:29.599Z,53.09
2023-01-19T13:23:27.472Z,52.77
2023-01-19T13:26:14.265Z,52.74
2023-01-19T13:28:46.489Z,53.08
2023-01-19T13:31:16.479Z,53.37
2023-01-19T13:33:58.041Z,53.82
2023-01-19T13:36:48.891Z,53.21
2023-01-19T13:39:29.119Z,53.68
2023-01-19T13:42:02.632Z,53.96
2023-01-19T13:44:43.399Z,53.95
2023-01-19T13:47:21.344Z,53.42
2023-01-19T13:49:54.746Z,53.25
2023-01-19T13:52:26.025Z,53.40
2023-01-19T13:55:03.083Z,52.88
2023-01-19T13:57:35.284Z,52.95
2023-01-19T14:00:09.419Z,53.24
2023-01-19T14:02:42.722Z,53.40
2023-01-19T14:05:17.462Z,53.26
2023-01-19T14:07:47.641Z,52.77
2023-01-19T14:10:17.858Z,53.14
2023-01-19T14:12:58.933Z,53.50
2023-01-19T14:15:31.099Z,53.36
2023-01-19T14:18:12.368Z,53.51
2023-01-19T14:20:42.482Z,53.61
2023-01-19T14:23:37.136Z,54.39
2023-01-19T14:26:07.163Z,53.81
2023-01-19T14:28:41.556Z,53.84
2023-01-19T14:31:29.916Z,54.02
2023-01-19T14:34:02.014Z,54.01
2023-01-19T14:36:40.267Z,54.17
2023-01-19T14:39:24.129Z,54.79
2023-01-19T14:41:56.539Z,55.31
2023-01-19T14:44:35.829Z,56.33
2023-01-19T14:47:07.254Z,57.48
2023-01-19T14:49:42.367Z,57.91
2023-01-19T14:52:28.383Z,58.49
2023-01-19T14:55:00.779Z,59.10
2023-01-19T14:57:30.834Z,59.22
2023-01-19T15:00:00.205Z,58.69
2023-01-19T15:02:29.430Z,59.05
2023-01-19T15:04:58.951Z,59.58
2023-01-19T15:07:29.304Z,59.73
2023-01-19T15:10:00.820Z,60.09
2023-01-19T15:12:30.789Z,60.13
2023-01-19T15:15:00.335Z,60.20
2023-01-19T15:17:29.588Z,60.39
2023-01-19T15:19:58.955Z,60.94
2023-01-19T15:22:29.371Z,61.02
2023-01-19T15:25:01.037Z,63.25
2023-01-19T15:27:30.400Z,63.05
2023-01-19T15:30:00.696Z,64.01
2023-01-19T15:32:29.813Z,64.88
2023-01-19T15:34:59.043Z,65.17
2023-01-19T15:37:29.024Z,66.21
2023-01-19T15:39:58.406Z,66.33
2023-01-19T15:42:27.384Z,65.59
2023-01-19T15:44:56.693Z,66.02
2023-01-19T15:47:25.801Z,66.07
2023-01-19T15:49:55.138Z,65.45
2023-01-19T15:52:24.578Z,67.86
2023-01-19T15:54:53.893Z,66.92
2023-01-19T15:57:23.204Z,66.42
2023-01-19T15:59:52.340Z,65.95
2023-01-19T16:02:22.055Z,67.27
2023-01-19T16:04:51.753Z,68.49
2023-01-19T16:07:21.936Z,68.26
2023-01-19T16:09:51.551Z,68.36
2023-01-19T16:12:20.554Z,68.96
2023-01-19T16:14:50.336Z,68.68
2023-01-19T16:17:19.946Z,69.09
2023-01-19T16:19:49.480Z,69.37
2023-01-19T16:22:18.550Z,69.37
2023-01-19T16:24:48.231Z,68.07
2023-01-19T16:27:17.341Z,68.02
2023-01-19T16:29:46.733Z,67.20
2023-01-19T16:32:17.017Z,66.55
2023-01-19T16:34:46.428Z,66.01
2023-01-19T16:37:16.447Z,66.41
2023-01-19T16:39:46.499Z,67.29
2023-01-19T16:42:17.807Z,68.94
2023-01-19T16:44:47.291Z,69.71
2023-01-19T16:47:16.253Z,68.65
2023-01-19T16:49:46.015Z,68.00
2023-01-19T16:52:16.109Z,67.91
2023-01-19T16:54:49.670Z,68.95
2023-01-19T16:57:19.494Z,69.85
2023-01-19T16:59:48.999Z,69.72
2023-01-19T17:02:18.298Z,68.92
2023-01-19T17:04:48.254Z,69.21
2023-01-19T17:07:19.284Z,70.13
2023-01-19T17:09:48.611Z,70.28
2023-01-19T17:12:18.373Z,69.86
2023-01-19T17:14:51.091Z,71.12
2023-01-19T17:17:21.286Z,71.51
2023-01-19T17:19:51.417Z,71.43
2023-01-19T17:22:21.165Z,72.26
2023-01-19T17:24:50.891Z,72.07
2023-01-19T17:27:20.537Z,71.68
2023-01-19T17:29:51.369Z,71.94
2023-01-19T17:34:52.165Z,71.93
2023-01-19T17:37:21.415Z,72.60
2023-01-19T17:39:50.954Z,72.25
2023-01-19T17:42:20.321Z,72.22
2023-01-19T17:44:49.828Z,72.33
2023-01-19T17:47:18.899Z,72.23
2023-01-19T17:49:47.920Z,72.06
2023-01-19T17:52:17.987Z,72.01
2023-01-19T17:54:47.619Z,71.54
2023-01-19T17:57:16.673Z,71.90
2023-01-19T17:59:47.951Z,72.37
2023-01-19T18:02:17.505Z,71.50
2023-01-19T18:04:47.010Z,72.31
2023-01-19T18:07:16.194Z,72.60
2023-01-19T18:09:45.460Z,72.27
2023-01-19T18:12:15.348Z,72.94
2023-01-19T18:14:44.377Z,72.93
2023-01-19T18:17:13.637Z,73.12
2023-01-19T18:19:43.278Z,72.27
2023-01-19T18:22:12.950Z,71.74
2023-01-19T18:24:42.099Z,71.75
2023-01-19T18:27:11.698Z,72.21
2023-01-19T18:29:41.068Z,72.76
2023-01-19T18:32:10.606Z,72.49
2023-01-19T18:34:39.969Z,72.13
2023-01-19T18:37:10.157Z,72.57
2023-01-19T18:39:39.670Z,72.57
2023-01-19T18:42:09.201Z,72.76
2023-01-19T18:44:38.594Z,73.28
2023-01-19T18:47:07.793Z,73.11
2023-01-19T18:49:36.714Z,72.01
2023-01-19T18:52:06.456Z,71.96
2023-01-19T18:54:35.645Z,72.31
2023-01-19T18:57:04.833Z,71.68
2023-01-19T18:59:34.389Z,72.63
2023-01-19T19:02:06.228Z,73.13
2023-01-19T19:04:35.694Z,74.40
2023-01-19T19:07:04.834Z,76.00
2023-01-19T19:09:34.168Z,76.61
2023-01-19T19:12:03.651Z,76.25
2023-01-19T19:14:34.368Z,74.99
2023-01-19T19:17:03.600Z,74.93
2023-01-19T19:19:32.860Z,74.92
2023-01-19T19:22:02.165Z,74.26
2023-01-19T19:24:31.596Z,74.14
2023-01-19T19:27:01.057Z,74.34
2023-01-19T19:29:30.530Z,74.24
2023-01-19T19:32:00.549Z,74.10
2023-01-19T19:34:30.345Z,73.60
2023-01-19T19:37:01.120Z,73.71
2023-01-19T19:39:31.202Z,72.79
2023-01-19T19:42:00.319Z,73.53
2023-01-19T19:44:29.863Z,73.07
2023-01-19T19:46:59.353Z,73.15
2023-01-19T19:49:28.695Z,73.43
2023-01-19T19:51:57.875Z,73.19
2023-01-19T19:54:27.588Z,72.56
2023-01-19T19:56:56.422Z,71.82
2023-01-19T19:59:25.437Z,71.21
2023-01-19T20:01:55.890Z,70.41
2023-01-19T20:04:26.209Z,70.08
2023-01-19T20:06:55.748Z,70.63
2023-01-19T20:09:25.087Z,71.19
2023-01-19T20:11:54.513Z,70.22
2023-01-19T20:14:25.096Z,69.62
2023-01-19T20:16:55.316Z,69.03
2023-01-19T20:19:24.600Z,69.20
2023-01-19T20:21:53.890Z,69.21
2023-01-19T20:24:22.928Z,68.87
2023-01-19T20:26:54.277Z,69.14
2023-01-19T20:29:24.058Z,69.00
2023-01-19T20:31:56.799Z,69.21
2023-01-19T20:34:28.245Z,69.05
2023-01-19T20:36:57.744Z,69.62
2023-01-19T20:39:27.187Z,70.94
2023-01-19T20:41:56.415Z,71.26
2023-01-19T20:44:27.682Z,71.61
2023-01-19T20:46:57.322Z,72.07
2023-01-19T20:49:27.448Z,71.89
2023-01-19T20:51:59.549Z,71.67
2023-01-19T20:54:31.282Z,71.64
2023-01-19T20:57:00.833Z,71.56
2023-01-19T20:59:30.254Z,71.56
2023-01-19T21:01:59.582Z,71.36
2023-01-19T21:04:28.308Z,70.89
2023-01-19T21:06:57.494Z,70.39
2023-01-19T21:09:26.855Z,69.68
2023-01-19T21:11:57.440Z,69.99
2023-01-19T21:14:27.665Z,69.70
2023-01-19T21:17:00.304Z,69.69
2023-01-19T21:19:29.324Z,69.66
2023-01-19T21:21:58.624Z,69.47
2023-01-19T21:24:27.721Z,68.19
2023-01-19T21:26:56.968Z,67.84
2023-01-19T21:29:26.414Z,67.66
2023-01-19T21:31:55.928Z,67.78
2023-01-19T21:34:25.255Z,66.75
2023-01-19T21:36:54.781Z,66.26
2023-01-19T21:39:24.107Z,66.28
2023-01-19T21:41:53.412Z,65.59
2023-01-19T21:44:22.765Z,65.71
2023-01-19T21:46:51.952Z,65.70
2023-01-19T21:49:21.868Z,65.42
2023-01-19T21:51:53.619Z,64.00
2023-01-19T21:54:22.904Z,64.43
2023-01-19T21:56:52.278Z,63.13
2023-01-19T21:59:21.624Z,63.32
2023-01-19T22:01:51.288Z,63.78
2023-01-19T22:04:20.512Z,63.55
2023-01-19T22:06:49.610Z,62.90
2023-01-19T22:09:19.095Z,62.83
2023-01-19T22:11:48.628Z,63.27
2023-01-19T22:14:17.519Z,62.71
2023-01-19T22:16:46.973Z,62.96
2023-01-19T22:19:16.341Z,64.57
2023-01-19T22:21:45.555Z,65.25
2023-01-19T22:24:14.736Z,65.61
2023-01-19T22:26:43.938Z,67.05
2023-01-19T22:29:14.222Z,67.50
2023-01-19T22:31:44.238Z,68.50
2023-01-19T22:34:14.507Z,68.44
2023-01-19T22:36:44.319Z,69.97
2023-01-19T22:39:14.666Z,70.84
2023-01-19T22:41:48.985Z,71.00
2023-01-19T22:44:21.955Z,71.67
2023-01-19T22:46:55.168Z,71.20
2023-01-19T22:49:24.395Z,71.93
2023-01-19T22:51:55.281Z,71.82
2023-01-19T22:54:24.500Z,72.62
2023-01-19T22:56:53.407Z,71.96
2023-01-19T22:59:22.654Z,71.72
2023-01-19T23:01:52.441Z,71.40
2023-01-19T23:04:21.562Z,71.01
2023-01-19T23:06:53.177Z,71.65
2023-01-19T23:09:23.820Z,73.12
2023-01-19T23:11:53.871Z,73.03
2023-01-19T23:14:24.021Z,73.14
2023-01-19T23:16:53.589Z,72.71
2023-01-19T23:19:22.804Z,72.96
2023-01-19T23:21:54.869Z,73.81
2023-01-19T23:24:23.884Z,73.67
2023-01-19T23:26:53.742Z,74.98
2023-01-19T23:29:22.984Z,74.45
2023-01-19T23:31:54.541Z,74.71
2023-01-19T23:34:23.903Z,75.47
2023-01-19T23:36:53.111Z,76.35
2023-01-19T23:39:23.702Z,76.54
2023-01-19T23:41:53.090Z,77.29
2023-01-19T23:44:22.317Z,78.66
2023-01-19T23:46:52.034Z,77.94
2023-01-19T23:49:21.602Z,77.35
2023-01-19T23:51:50.984Z,76.82
2023-01-19T23:54:20.433Z,76.54
2023-01-19T23:56:49.721Z,75.52
2023-01-19T23:59:18.972Z,73.69
